createdAt,value
2019-05-09T00:02:33.728Z,8.17
2019-05-09T00:05:03.789Z,8.11
2019-05-09T00:07:33.787Z,8.07
2019-05-09T00:10:05.498Z,8.07
2019-05-09T00:12:34.760Z,8.09
2019-05-09T00:15:05.598Z,8.14
2019-05-09T00:17:35.601Z,8.18
2019-05-09T00:20:09.747Z,8.16
2019-05-09T00:22:39.005Z,8.16
2019-05-09T00:25:08.377Z,8.13
2019-05-09T00:27:38.904Z,8.11
2019-05-09T00:30:10.289Z,8.05
2019-05-09T00:32:43.164Z,7.99
2019-05-09T00:35:17.137Z,8.05
2019-05-09T00:37:53.900Z,8.05
2019-05-09T00:40:24.286Z,8.06
2019-05-09T00:42:54.456Z,8.00
2019-05-09T00:45:35.229Z,8.03
2019-05-09T00:48:04.671Z,8.02
2019-05-09T00:50:34.229Z,7.95
2019-05-09T00:53:03.855Z,7.92
2019-05-09T00:55:34.205Z,7.96
2019-05-09T00:58:04.240Z,7.97
2019-05-09T01:00:33.677Z,7.97
2019-05-09T01:03:03.664Z,7.98
2019-05-09T01:05:34.175Z,7.97
2019-05-09T01:08:04.811Z,7.87
2019-05-09T01:10:34.339Z,7.93
2019-05-09T01:13:03.829Z,7.93
2019-05-09T01:15:33.565Z,7.86
2019-05-09T01:18:04.450Z,7.88
2019-05-09T01:20:34.168Z,7.86
2019-05-09T01:23:03.639Z,7.76
2019-05-09T01:25:33.630Z,7.74
2019-05-09T01:28:03.442Z,7.73
2019-05-09T01:30:33.594Z,7.70
2019-05-09T01:33:13.445Z,7.70
2019-05-09T01:35:43.484Z,7.60
2019-05-09T01:38:14.177Z,7.61
2019-05-09T01:40:44.004Z,7.64
2019-05-09T01:43:13.930Z,7.67
2019-05-09T01:45:47.030Z,7.63
2019-05-09T01:48:20.095Z,7.57
2019-05-09T01:50:49.406Z,7.58
2019-05-09T01:53:20.335Z,7.56
2019-05-09T01:55:58.521Z,7.53
2019-05-09T01:58:30.113Z,7.46
2019-05-09T02:01:00.120Z,7.51
2019-05-09T02:03:33.488Z,7.47
2019-05-09T02:06:03.538Z,7.49
2019-05-09T02:08:34.748Z,7.50
2019-05-09T02:11:04.330Z,7.43
2019-05-09T02:13:34.140Z,7.41
2019-05-09T02:16:14.199Z,7.38
2019-05-09T02:18:45.264Z,7.45
2019-05-09T02:21:14.743Z,7.46
2019-05-09T02:23:44.191Z,7.50
2019-05-09T02:26:13.802Z,7.46
2019-05-09T02:28:43.431Z,7.45
2019-05-09T02:31:16.282Z,7.43
2019-05-09T02:33:45.409Z,7.40
2019-05-09T02:36:14.949Z,7.35
2019-05-09T02:38:44.231Z,7.45
2019-05-09T02:41:13.508Z,7.45
2019-05-09T02:43:42.967Z,7.45
2019-05-09T02:46:23.089Z,7.45
2019-05-09T02:48:52.537Z,7.41
2019-05-09T02:51:21.804Z,7.38
2019-05-09T02:53:51.097Z,7.42
2019-05-09T02:56:20.364Z,7.39
2019-05-09T02:59:00.155Z,7.34
2019-05-09T03:01:31.066Z,7.28
2019-05-09T03:04:00.361Z,7.24
2019-05-09T03:06:29.642Z,7.22
2019-05-09T03:09:00.007Z,7.16
2019-05-09T03:11:29.293Z,7.17
2019-05-09T03:13:59.638Z,7.18
2019-05-09T03:16:29.453Z,7.14
2019-05-09T03:18:59.775Z,7.05
2019-05-09T03:21:30.688Z,6.99
2019-05-09T03:24:00.079Z,7.01
2019-05-09T03:26:30.996Z,7.05
2019-05-09T03:29:02.408Z,7.04
2019-05-09T03:31:33.363Z,6.99
2019-05-09T03:34:02.666Z,7.01
2019-05-09T03:36:32.022Z,6.99
2019-05-09T03:39:01.325Z,7.00
2019-05-09T03:41:31.702Z,7.03
2019-05-09T03:44:00.985Z,7.00
2019-05-09T03:46:49.965Z,6.98
2019-05-09T03:49:20.979Z,7.01
2019-05-09T03:51:50.359Z,7.02
2019-05-09T03:54:19.658Z,6.99
2019-05-09T03:56:57.249Z,7.01
2019-05-09T03:59:27.855Z,6.99
2019-05-09T04:01:58.999Z,6.99
2019-05-09T04:04:28.506Z,6.98
2019-05-09T04:06:58.217Z,7.01
2019-05-09T04:09:28.985Z,7.07
2019-05-09T04:12:00.186Z,7.04
2019-05-09T04:14:31.018Z,7.03
2019-05-09T04:17:00.311Z,7.01
2019-05-09T04:19:29.569Z,6.98
2019-05-09T04:22:02.095Z,6.98
2019-05-09T04:24:30.778Z,6.94
2019-05-09T04:27:04.657Z,7.03
2019-05-09T04:29:34.062Z,7.01
2019-05-09T04:32:04.350Z,6.98
2019-05-09T04:34:33.664Z,7.01
2019-05-09T04:37:02.970Z,7.05
2019-05-09T04:39:32.566Z,7.14
2019-05-09T04:42:05.371Z,7.15
2019-05-09T04:44:34.524Z,7.19
2019-05-09T04:47:04.083Z,7.27
2019-05-09T04:49:39.236Z,7.24
2019-05-09T04:52:07.498Z,7.30
2019-05-09T04:54:38.434Z,7.39
2019-05-09T04:57:07.976Z,7.36
2019-05-09T04:59:37.690Z,7.40
2019-05-09T05:02:15.038Z,7.44
2019-05-09T05:04:44.330Z,7.50
2019-05-09T05:07:13.654Z,7.56
2019-05-09T05:09:42.926Z,7.63
2019-05-09T05:12:12.226Z,7.78
2019-05-09T05:14:41.476Z,7.74
2019-05-09T05:17:11.605Z,7.89
2019-05-09T05:19:41.111Z,7.99
2019-05-09T05:22:13.186Z,7.99
2019-05-09T05:24:44.101Z,8.05
2019-05-09T05:27:13.503Z,8.26
2019-05-09T05:29:42.846Z,8.45
2019-05-09T05:32:14.859Z,9.01
2019-05-09T05:35:07.592Z,10.10
2019-05-09T05:37:38.819Z,10.99
2019-05-09T05:40:08.501Z,11.60
2019-05-09T05:42:38.818Z,11.51
2019-05-09T05:45:08.515Z,11.07
2019-05-09T05:47:39.716Z,11.17
2019-05-09T05:50:09.335Z,10.82
2019-05-09T05:52:38.734Z,10.70
2019-05-09T05:55:08.343Z,10.65
2019-05-09T05:57:38.608Z,10.64
2019-05-09T06:00:10.200Z,10.85
2019-05-09T06:02:44.933Z,11.54
2019-05-09T06:05:18.710Z,11.33
2019-05-09T06:07:49.268Z,10.82
2019-05-09T06:10:18.969Z,10.21
2019-05-09T06:12:48.432Z,9.63
2019-05-09T06:15:18.399Z,10.02
2019-05-09T06:17:48.523Z,10.05
2019-05-09T06:20:18.166Z,10.11
2019-05-09T06:22:48.526Z,10.06
2019-05-09T06:25:20.723Z,10.02
2019-05-09T06:27:48.964Z,10.19
2019-05-09T06:30:24.298Z,9.97
2019-05-09T06:32:53.631Z,10.26
2019-05-09T06:35:23.943Z,10.34
2019-05-09T06:37:53.524Z,10.25
2019-05-09T06:40:24.429Z,10.58
2019-05-09T06:42:53.974Z,10.46
2019-05-09T06:45:27.243Z,10.68
2019-05-09T06:47:58.293Z,10.85
2019-05-09T06:50:27.524Z,11.00
2019-05-09T06:52:57.366Z,10.98
2019-05-09T06:55:27.610Z,10.76
2019-05-09T06:57:58.467Z,10.68
2019-05-09T07:00:38.525Z,10.89
2019-05-09T07:03:09.496Z,10.86
2019-05-09T07:05:57.466Z,10.85
2019-05-09T07:08:37.931Z,10.96
2019-05-09T07:11:07.583Z,11.23
2019-05-09T07:13:38.215Z,11.24
2019-05-09T07:16:08.969Z,11.55
2019-05-09T07:18:38.576Z,11.63
2019-05-09T07:21:08.377Z,11.74
2019-05-09T07:23:37.929Z,11.89
2019-05-09T07:26:11.667Z,12.12
2019-05-09T07:28:41.938Z,12.13
2019-05-09T07:31:13.303Z,12.06
2019-05-09T07:34:00.745Z,11.99
2019-05-09T07:36:30.299Z,11.98
2019-05-09T07:38:59.833Z,12.01
2019-05-09T07:41:29.139Z,12.07
2019-05-09T07:43:58.533Z,12.27
2019-05-09T07:46:32.010Z,12.30
2019-05-09T07:49:01.781Z,12.48
2019-05-09T07:51:31.075Z,12.91
2019-05-09T07:54:00.381Z,12.98
2019-05-09T07:56:29.749Z,13.24
2019-05-09T07:58:59.106Z,13.10
2019-05-09T08:01:28.413Z,13.00
2019-05-09T08:03:58.547Z,13.16
2019-05-09T08:06:28.943Z,13.30
2019-05-09T08:08:58.512Z,13.38
2019-05-09T08:11:29.462Z,13.66
2019-05-09T08:13:59.009Z,14.02
2019-05-09T08:16:28.342Z,13.95
2019-05-09T08:18:57.973Z,14.15
2019-05-09T08:21:27.882Z,14.44
2019-05-09T08:23:57.845Z,14.39
2019-05-09T08:26:29.791Z,14.55
2019-05-09T08:28:58.742Z,14.29
2019-05-09T08:31:28.310Z,14.24
2019-05-09T08:33:59.366Z,14.11
2019-05-09T08:36:29.107Z,14.18
2019-05-09T08:38:58.917Z,14.28
2019-05-09T08:41:29.336Z,14.39
2019-05-09T08:43:58.962Z,14.62
2019-05-09T09:03:05.129Z,14.73
2019-05-09T09:05:34.426Z,14.47
2019-05-09T09:35:23.174Z,15.24
2019-05-09T09:37:53.336Z,16.45
2019-05-09T09:40:23.612Z,16.88
2019-05-09T09:42:53.137Z,16.48
2019-05-09T09:45:22.424Z,16.44
2019-05-09T09:47:51.838Z,16.48
2019-05-09T09:50:21.122Z,16.55
2019-05-09T09:52:50.432Z,17.03
2019-05-09T09:55:19.729Z,18.91
2019-05-09T09:57:49.527Z,19.99
2019-05-09T10:00:58.423Z,18.13
2019-05-09T10:03:27.715Z,17.44
2019-05-09T10:05:57.954Z,17.02
2019-05-09T10:08:27.329Z,16.19
2019-05-09T10:10:58.971Z,15.75
2019-05-09T10:13:28.587Z,16.04
2019-05-09T10:16:00.028Z,15.55
2019-05-09T10:18:33.416Z,15.59
2019-05-09T10:21:04.332Z,15.00
2019-05-09T10:23:33.636Z,15.03
2019-05-09T10:26:03.001Z,15.01
2019-05-09T10:28:32.294Z,16.52
2019-05-09T10:31:01.610Z,15.84
2019-05-09T10:33:30.897Z,16.08
2019-05-09T10:36:04.486Z,17.27
2019-05-09T10:38:31.219Z,16.34
2019-05-09T10:41:01.871Z,17.99
2019-05-09T10:43:38.984Z,18.97
2019-05-09T10:46:15.317Z,21.32
2019-05-09T10:48:43.949Z,22.95
2019-05-09T10:51:13.238Z,22.76
2019-05-09T10:53:42.552Z,21.02
2019-05-09T10:56:11.851Z,19.92
2019-05-09T10:58:41.216Z,18.51
2019-05-09T11:01:10.506Z,17.97
2019-05-09T11:03:39.876Z,19.45
2019-05-09T11:06:09.151Z,19.09
2019-05-09T11:08:38.457Z,19.10
2019-05-09T11:11:09.456Z,19.68
2019-05-09T11:13:39.165Z,21.19
2019-05-09T11:16:08.515Z,21.90
2019-05-09T11:18:37.813Z,20.73
2019-05-09T11:21:08.428Z,19.03
2019-05-09T11:23:39.305Z,17.89
2019-05-09T11:26:08.782Z,17.62
2019-05-09T11:28:38.063Z,17.71
2019-05-09T11:31:08.273Z,17.98
2019-05-09T11:33:38.607Z,18.49
2019-05-09T11:36:09.763Z,17.92
2019-05-09T11:38:43.677Z,17.85
2019-05-09T11:41:10.479Z,17.31
2019-05-09T11:43:39.743Z,20.23
2019-05-09T11:46:10.484Z,21.93
2019-05-09T11:48:39.997Z,20.96
2019-05-09T11:51:09.315Z,20.43
2019-05-09T11:53:40.301Z,20.92
2019-05-09T11:56:09.685Z,21.53
2019-05-09T11:58:39.205Z,22.63
2019-05-09T12:01:08.495Z,20.40
2019-05-09T12:03:38.889Z,18.87
2019-05-09T12:06:08.385Z,17.43
2019-05-09T12:08:38.758Z,17.51
2019-05-09T12:11:08.544Z,17.03
2019-05-09T12:13:38.148Z,16.76
2019-05-09T12:16:07.493Z,17.12
2019-05-09T12:18:37.842Z,17.80
2019-05-09T12:21:08.579Z,17.63
2019-05-09T12:23:37.944Z,17.77
2019-05-09T12:26:08.159Z,18.06
2019-05-09T12:28:38.693Z,18.62
2019-05-09T12:31:08.204Z,18.47
2019-05-09T12:33:37.600Z,17.40
2019-05-09T12:36:09.197Z,17.48
2019-05-09T12:38:38.919Z,17.15
2019-05-09T12:41:08.324Z,16.49
2019-05-09T12:43:38.291Z,16.45
2019-05-09T12:46:08.577Z,16.35
2019-05-09T12:48:38.036Z,16.04
2019-05-09T12:51:08.241Z,16.22
2019-05-09T12:53:39.570Z,16.17
2019-05-09T12:56:08.683Z,16.07
2019-05-09T12:58:38.082Z,16.16
2019-05-09T13:01:07.676Z,16.09
2019-05-09T13:03:38.185Z,15.94
2019-05-09T13:06:08.293Z,16.30
2019-05-09T13:08:55.002Z,15.88
2019-05-09T13:11:30.943Z,16.14
2019-05-09T13:14:00.236Z,16.00
2019-05-09T13:16:49.266Z,16.44
2019-05-09T13:19:18.362Z,16.84
2019-05-09T13:21:47.247Z,16.40
2019-05-09T13:24:19.634Z,16.61
2019-05-09T13:26:50.080Z,16.49
2019-05-09T13:29:22.680Z,16.65
2019-05-09T13:31:52.099Z,16.42
2019-05-09T13:34:21.388Z,16.28
2019-05-09T13:36:50.678Z,15.91
2019-05-09T13:39:20.252Z,14.96
2019-05-09T13:41:49.537Z,15.01
2019-05-09T13:44:18.967Z,15.61
2019-05-09T13:46:49.021Z,16.78
2019-05-09T13:49:19.398Z,17.74
2019-05-09T13:51:58.701Z,17.87
2019-05-09T13:54:19.937Z,17.53
2019-05-09T13:56:56.747Z,17.13
2019-05-09T13:59:20.265Z,17.83
2019-05-09T14:01:49.552Z,17.89
2019-05-09T14:04:18.881Z,18.22
2019-05-09T14:06:48.771Z,18.19
2019-05-09T14:09:19.895Z,19.01
2019-05-09T14:11:49.417Z,19.12
2019-05-09T14:14:18.721Z,18.07
2019-05-09T14:16:48.057Z,17.41
2019-05-09T14:19:35.999Z,17.41
2019-05-09T14:21:48.399Z,17.30
2019-05-09T14:24:19.181Z,17.03
2019-05-09T14:26:48.774Z,17.99
2019-05-09T14:29:20.463Z,18.90
2019-05-09T14:31:49.154Z,19.05
2019-05-09T14:34:19.731Z,19.21
2019-05-09T14:36:50.821Z,19.30
2019-05-09T14:39:20.121Z,19.49
2019-05-09T14:41:49.391Z,18.83
2019-05-09T14:44:18.686Z,18.90
2019-05-09T14:46:48.385Z,19.71
2019-05-09T14:49:17.945Z,19.45
2019-05-09T14:51:49.773Z,18.36
2019-05-09T14:54:18.200Z,18.15
2019-05-09T14:56:48.525Z,17.70
2019-05-09T14:59:18.749Z,17.37
2019-05-09T15:01:49.668Z,17.72
2019-05-09T15:04:20.049Z,17.77
2019-05-09T15:06:49.409Z,17.20
2019-05-09T15:09:18.717Z,16.77
2019-05-09T15:11:48.595Z,17.35
2019-05-09T15:14:19.277Z,17.84
2019-05-09T15:16:48.876Z,17.34
2019-05-09T15:19:20.227Z,17.02
2019-05-09T15:21:49.570Z,16.93
2019-05-09T15:24:19.524Z,17.25
2019-05-09T15:26:49.141Z,17.38
2019-05-09T15:29:18.473Z,17.30
2019-05-09T15:31:54.305Z,17.57
2019-05-09T15:34:19.606Z,17.62
2019-05-09T15:36:48.903Z,17.96
2019-05-09T15:39:18.544Z,17.86
2019-05-09T15:41:48.046Z,16.77
2019-05-09T15:44:18.737Z,16.68
2019-05-09T15:46:55.824Z,16.51
2019-05-09T15:49:28.319Z,16.27
2019-05-09T15:51:58.337Z,15.97
2019-05-09T15:54:29.413Z,15.69
2019-05-09T15:56:59.993Z,15.59
2019-05-09T15:59:30.847Z,15.58
2019-05-09T16:02:00.137Z,15.45
2019-05-09T16:04:29.462Z,15.35
2019-05-09T16:06:58.780Z,15.22
2019-05-09T16:09:28.699Z,14.61
2019-05-09T16:11:58.115Z,14.25
2019-05-09T16:14:27.798Z,13.85
2019-05-09T16:16:57.334Z,13.48
2019-05-09T16:19:26.887Z,13.08
2019-05-09T16:21:56.256Z,12.55
2019-05-09T16:24:27.853Z,12.15
2019-05-09T16:26:57.799Z,11.79
2019-05-09T16:29:28.572Z,11.53
2019-05-09T16:31:58.499Z,11.28
2019-05-09T16:34:28.272Z,11.18
2019-05-09T16:36:58.452Z,11.34
2019-05-09T16:39:28.041Z,11.47
2019-05-09T16:41:59.161Z,11.63
2019-05-09T16:44:29.808Z,11.84
2019-05-09T16:46:59.863Z,11.95
2019-05-09T16:49:29.536Z,11.94
2019-05-09T16:51:59.884Z,11.93
2019-05-09T16:54:30.821Z,11.90
2019-05-09T16:57:00.278Z,11.79
2019-05-09T16:59:29.681Z,11.75
2019-05-09T17:01:59.057Z,11.65
2019-05-09T17:04:28.375Z,11.65
2019-05-09T17:06:57.797Z,11.63
2019-05-09T17:09:28.601Z,11.60
2019-05-09T17:11:58.056Z,11.70
2019-05-09T17:14:28.352Z,11.81
2019-05-09T17:16:59.907Z,11.87
2019-05-09T17:19:28.674Z,11.90
2019-05-09T17:22:00.437Z,11.89
2019-05-09T17:24:30.092Z,11.82
2019-05-09T17:26:59.620Z,11.77
2019-05-09T17:29:29.021Z,11.76
2019-05-09T17:31:58.564Z,11.88
2019-05-09T17:34:28.814Z,11.75
2019-05-09T17:36:58.235Z,11.48
2019-05-09T17:39:27.940Z,11.34
2019-05-09T17:41:58.239Z,11.18
2019-05-09T17:44:28.180Z,11.07
2019-05-09T17:46:58.191Z,10.94
2019-05-09T17:49:28.157Z,10.85
2019-05-09T17:51:58.464Z,10.84
2019-05-09T17:54:28.733Z,10.84
2019-05-09T17:56:58.621Z,10.79
2019-05-09T17:59:29.313Z,10.65
2019-05-09T18:01:58.906Z,10.61
2019-05-09T18:04:28.978Z,10.68
2019-05-09T18:06:58.720Z,10.67
2019-05-09T18:09:28.665Z,10.60
2019-05-09T18:11:58.151Z,10.63
2019-05-09T18:14:27.812Z,10.68
2019-05-09T18:16:58.960Z,10.63
2019-05-09T18:19:29.565Z,10.63
2019-05-09T18:22:00.182Z,10.68
2019-05-09T18:24:29.474Z,10.71
2019-05-09T18:26:59.015Z,10.80
2019-05-09T18:29:28.511Z,10.85
2019-05-09T18:31:59.477Z,10.89
2019-05-09T18:34:28.809Z,10.88
2019-05-09T18:36:58.780Z,10.84
2019-05-09T18:39:29.378Z,10.88
2019-05-09T18:41:58.735Z,10.86
2019-05-09T18:44:28.031Z,10.90
2019-05-09T18:46:57.833Z,10.89
2019-05-09T18:49:27.297Z,10.85
2019-05-09T18:52:03.816Z,10.82
2019-05-09T18:54:27.891Z,10.80
2019-05-09T18:56:57.268Z,10.77
2019-05-09T18:59:26.570Z,10.75
2019-05-09T19:01:55.898Z,10.73
2019-05-09T19:04:25.334Z,10.71
2019-05-09T19:06:54.635Z,10.67
2019-05-09T19:09:23.946Z,10.60
2019-05-09T19:11:54.519Z,10.62
2019-05-09T19:14:24.363Z,10.59
2019-05-09T19:17:10.224Z,10.57
2019-05-09T19:19:53.454Z,10.55
2019-05-09T19:22:22.986Z,10.52
2019-05-09T19:24:52.310Z,10.53
2019-05-09T19:27:21.698Z,10.55
2019-05-09T19:29:51.009Z,10.56
2019-05-09T19:32:21.719Z,10.60
2019-05-09T19:34:50.963Z,10.56
2019-05-09T19:37:20.272Z,10.52
2019-05-09T19:39:49.627Z,10.50
2019-05-09T19:42:18.965Z,10.53
2019-05-09T19:44:48.367Z,10.49
2019-05-09T19:47:17.642Z,10.49
2019-05-09T19:49:46.991Z,10.50
2019-05-09T19:52:16.303Z,10.43
2019-05-09T19:54:45.596Z,10.44
2019-05-09T19:57:14.937Z,10.45
2019-05-09T19:59:44.230Z,10.43
2019-05-09T20:02:14.275Z,10.40
2019-05-09T20:04:43.619Z,10.39
2019-05-09T20:07:13.157Z,10.40
2019-05-09T20:09:45.732Z,10.40
2019-05-09T20:12:19.521Z,10.38
2019-05-09T20:14:50.617Z,10.40
2019-05-09T20:17:19.945Z,10.43
2019-05-09T20:19:49.214Z,10.40
2019-05-09T20:22:18.522Z,10.42
2019-05-09T20:24:47.830Z,10.46
2019-05-09T20:27:17.147Z,10.51
2019-05-09T20:29:46.425Z,10.48
2019-05-09T20:32:15.739Z,10.46
2019-05-09T20:34:45.033Z,10.51
2019-05-09T20:37:14.579Z,10.53
2019-05-09T20:39:44.105Z,10.54
2019-05-09T20:42:14.678Z,10.51
2019-05-09T20:44:44.239Z,10.50
2019-05-09T20:47:13.735Z,10.46
2019-05-09T20:49:44.292Z,10.48
2019-05-09T20:52:13.763Z,10.50
2019-05-09T20:54:43.233Z,10.53
2019-05-09T20:57:12.742Z,10.43
2019-05-09T20:59:42.277Z,10.42
2019-05-09T21:02:11.758Z,10.41
2019-05-09T21:04:41.228Z,10.38
2019-05-09T21:07:12.461Z,10.39
2019-05-09T21:09:42.003Z,10.39
2019-05-09T21:12:11.507Z,10.41
2019-05-09T21:14:40.963Z,10.39
2019-05-09T21:17:12.142Z,10.40
2019-05-09T21:19:41.635Z,10.50
2019-05-09T21:22:11.256Z,10.46
2019-05-09T21:24:40.737Z,10.44
2019-05-09T21:27:10.242Z,10.49
2019-05-09T21:29:39.742Z,10.53
2019-05-09T21:32:09.360Z,10.50
2019-05-09T21:34:38.724Z,10.52
2019-05-09T21:37:08.274Z,10.52
2019-05-09T21:39:37.646Z,10.52
2019-05-09T21:42:07.901Z,10.51
2019-05-09T21:44:38.279Z,10.46
2019-05-09T21:47:07.599Z,10.47
2019-05-09T21:49:36.917Z,10.42
2019-05-09T21:52:07.769Z,10.44
2019-05-09T21:54:37.255Z,10.41
2019-05-09T21:57:06.551Z,10.43
2019-05-09T21:59:35.872Z,10.42
2019-05-09T22:02:05.229Z,10.42
2019-05-09T22:04:34.675Z,10.42
2019-05-09T22:07:03.989Z,10.47
2019-05-09T22:09:33.287Z,10.45
2019-05-09T22:12:02.641Z,10.44
2019-05-09T22:14:31.962Z,10.43
2019-05-09T22:17:02.988Z,10.44
2019-05-09T22:19:32.615Z,10.39
2019-05-09T22:22:01.910Z,10.36
2019-05-09T22:24:31.299Z,10.41
2019-05-09T22:27:00.617Z,10.39
2019-05-09T22:29:29.913Z,10.40
2019-05-09T22:31:59.198Z,10.44
2019-05-09T22:34:29.591Z,10.44
2019-05-09T22:36:58.863Z,10.42
2019-05-09T22:39:28.193Z,10.26
2019-05-09T22:41:57.489Z,10.12
2019-05-09T22:44:26.789Z,9.98
2019-05-09T22:46:56.062Z,9.87
2019-05-09T22:49:25.376Z,9.85
2019-05-09T22:51:54.660Z,9.83
2019-05-09T22:54:23.970Z,9.79
2019-05-09T22:56:53.246Z,9.75
2019-05-09T22:59:22.542Z,9.74
2019-05-09T23:01:51.816Z,9.74
2019-05-09T23:04:21.139Z,9.76
2019-05-09T23:06:50.416Z,9.82
2019-05-09T23:09:19.715Z,9.76
2019-05-09T23:11:48.987Z,9.76
2019-05-09T23:14:18.300Z,9.75
2019-05-09T23:16:50.439Z,9.77
2019-05-09T23:19:18.601Z,9.80
2019-05-09T23:21:47.879Z,9.80
2019-05-09T23:24:28.266Z,9.79
2019-05-09T23:26:49.791Z,9.78
2019-05-09T23:29:20.027Z,9.80
2019-05-09T23:31:59.940Z,9.75
2019-05-09T23:34:29.244Z,9.74
2019-05-09T23:36:58.560Z,9.80
2019-05-09T23:39:29.628Z,9.76
2019-05-09T23:41:58.905Z,9.74
2019-05-09T23:44:28.337Z,9.73
2019-05-09T23:46:57.613Z,9.74
2019-05-09T23:49:26.926Z,9.80
2019-05-09T23:51:56.207Z,9.77
2019-05-09T23:54:46.445Z,9.78
2019-05-09T23:57:32.201Z,9.79
